createdAt,value
2023-03-20T00:00:50.453Z,96314.56
2023-03-20T00:03:18.041Z,96311.72
2023-03-20T00:05:46.986Z,96315.88
2023-03-20T00:08:14.560Z,96318.53
2023-03-20T00:10:44.199Z,96323.00
2023-03-20T00:13:16.787Z,96320.34
2023-03-20T00:15:45.105Z,96313.88
2023-03-20T00:18:16.400Z,96320.53
2023-03-20T00:20:43.889Z,96309.41
2023-03-20T00:23:13.026Z,96324.16
2023-03-20T00:25:42.265Z,96323.50
2023-03-20T00:28:37.433Z,96322.97
2023-03-20T00:31:06.679Z,96318.97
2023-03-20T00:33:34.962Z,96317.63
2023-03-20T00:36:02.698Z,96327.19
2023-03-20T00:38:31.533Z,96331.19
2023-03-20T00:40:59.069Z,96319.56
2023-03-20T00:43:26.555Z,96319.38
2023-03-20T00:45:54.253Z,96322.53
2023-03-20T00:48:22.037Z,96322.19
2023-03-20T00:50:49.874Z,96325.13
2023-03-20T00:53:17.356Z,96331.56
2023-03-20T00:55:46.386Z,96333.41
2023-03-20T00:58:14.295Z,96333.34
2023-03-20T01:00:43.126Z,96328.81
2023-03-20T01:03:17.858Z,96338.41
2023-03-20T01:05:46.421Z,96327.66
2023-03-20T01:08:16.211Z,96335.84
2023-03-20T01:10:45.056Z,96334.81
2023-03-20T01:13:21.412Z,96331.50
2023-03-20T01:15:50.495Z,96328.75
2023-03-20T01:18:19.782Z,96325.06
2023-03-20T01:20:47.590Z,96320.56
2023-03-20T01:23:16.074Z,96317.34
2023-03-20T01:25:43.797Z,96319.88
2023-03-20T01:28:18.407Z,96310.16
2023-03-20T01:30:47.183Z,96319.06
2023-03-20T01:33:17.038Z,96314.88
2023-03-20T01:35:45.520Z,96313.16
2023-03-20T01:38:14.870Z,96317.53
2023-03-20T01:40:51.573Z,96311.47
2023-03-20T01:43:22.651Z,96311.56
2023-03-20T01:46:03.751Z,96313.63
2023-03-20T01:48:56.876Z,96308.41
2023-03-20T01:51:25.893Z,96308.16
2023-03-20T01:53:59.578Z,96319.34
2023-03-20T01:56:31.426Z,96306.09
2023-03-20T01:59:04.729Z,96314.50
2023-03-20T02:01:33.225Z,96317.75
2023-03-20T02:04:01.223Z,96319.00
2023-03-20T02:06:29.239Z,96318.56
2023-03-20T02:08:56.710Z,96326.56
2023-03-20T02:11:25.606Z,96328.81
2023-03-20T02:13:55.887Z,96319.84
2023-03-20T02:16:24.715Z,96332.59
2023-03-20T02:18:56.153Z,96330.84
2023-03-20T02:21:49.554Z,96332.94
2023-03-20T02:25:15.446Z,96328.41
2023-03-20T02:27:58.702Z,96328.47
2023-03-20T02:30:43.982Z,96330.59
2023-03-20T02:33:50.892Z,96339.78
2023-03-20T02:37:06.824Z,96330.41
2023-03-20T02:39:52.519Z,96320.50
2023-03-20T02:42:30.458Z,96329.16
2023-03-20T02:45:08.883Z,96331.09
2023-03-20T02:47:42.835Z,96329.72
2023-03-20T02:50:17.464Z,96330.41
2023-03-20T02:52:49.933Z,96332.53
2023-03-20T02:55:25.107Z,96331.13
2023-03-20T02:58:00.580Z,96339.47
2023-03-20T03:00:33.477Z,96332.63
2023-03-20T03:03:07.975Z,96335.66
2023-03-20T03:05:39.781Z,96333.75
2023-03-20T03:08:10.947Z,96331.69
2023-03-20T03:10:44.981Z,96334.44
2023-03-20T03:13:16.819Z,96336.75
2023-03-20T03:15:47.814Z,96335.47
2023-03-20T03:18:20.066Z,96341.66
2023-03-20T03:20:51.267Z,96351.22
2023-03-20T03:23:27.428Z,96346.34
2023-03-20T03:25:58.921Z,96353.69
2023-03-20T03:28:36.933Z,96353.50
2023-03-20T03:31:08.193Z,96344.84
2023-03-20T03:33:39.952Z,96351.59
2023-03-20T03:36:16.143Z,96352.25
2023-03-20T03:38:51.364Z,96353.69
2023-03-20T03:41:30.132Z,96358.81
2023-03-20T03:44:05.811Z,96376.97
2023-03-20T03:46:44.558Z,96381.53
2023-03-20T03:49:17.304Z,96383.91
2023-03-20T03:51:47.649Z,96382.53
2023-03-20T03:54:19.318Z,96376.72
2023-03-20T03:56:51.135Z,96366.50
2023-03-20T03:59:26.052Z,96362.06
2023-03-20T04:01:55.458Z,96367.59
2023-03-20T04:04:24.832Z,96364.94
2023-03-20T04:06:52.594Z,96358.22
2023-03-20T04:09:20.178Z,96368.53
2023-03-20T04:11:51.788Z,96364.13
2023-03-20T04:14:19.398Z,96371.47
2023-03-20T04:16:47.414Z,96365.63
2023-03-20T04:19:14.936Z,96380.97
2023-03-20T04:21:42.434Z,96374.81
2023-03-20T04:24:10.026Z,96378.94
2023-03-20T04:26:37.902Z,96379.91
2023-03-20T04:29:06.738Z,96372.53
2023-03-20T04:31:34.262Z,96376.09
2023-03-20T04:34:01.759Z,96384.94
2023-03-20T04:36:29.473Z,96396.97
2023-03-20T04:38:57.749Z,96401.72
2023-03-20T04:41:25.326Z,96387.19
2023-03-20T04:43:52.820Z,96393.16
2023-03-20T04:46:21.654Z,96382.00
2023-03-20T04:48:49.166Z,96367.28
2023-03-20T04:51:16.646Z,96375.41
2023-03-20T04:53:44.154Z,96378.94
2023-03-20T04:56:11.632Z,96374.31
2023-03-20T04:58:39.087Z,96375.19
2023-03-20T05:01:06.897Z,96383.72
2023-03-20T05:03:35.796Z,96377.28
2023-03-20T05:06:03.345Z,96382.81
2023-03-20T05:08:30.960Z,96380.69
2023-03-20T05:10:58.435Z,96386.97
2023-03-20T05:13:25.984Z,96393.19
2023-03-20T05:15:53.467Z,96389.16
2023-03-20T05:18:21.202Z,96377.44
2023-03-20T05:20:51.734Z,96379.66
2023-03-20T05:23:19.215Z,96384.34
2023-03-20T05:25:46.699Z,96396.47
2023-03-20T05:28:14.244Z,96384.94
2023-03-20T05:30:41.765Z,96390.44
2023-03-20T05:33:09.342Z,96392.78
2023-03-20T05:35:37.036Z,96391.91
2023-03-20T05:38:05.971Z,96398.41
2023-03-20T05:40:33.441Z,96403.72
2023-03-20T05:43:01.070Z,96403.53
2023-03-20T05:45:28.782Z,96414.38
2023-03-20T05:47:56.406Z,96417.13
2023-03-20T05:50:23.894Z,96422.00
2023-03-20T05:52:51.391Z,96420.75
2023-03-20T05:55:20.314Z,96421.97
2023-03-20T05:57:47.824Z,96416.28
2023-03-20T06:00:16.509Z,96418.72
2023-03-20T06:02:46.155Z,96422.50
2023-03-20T06:05:14.813Z,96434.84
2023-03-20T06:07:42.277Z,96430.38
2023-03-20T06:10:11.111Z,96434.34
2023-03-20T06:12:39.966Z,96436.16
2023-03-20T06:15:08.449Z,96440.84
2023-03-20T06:17:35.932Z,96450.97
2023-03-20T06:20:03.494Z,96455.66
2023-03-20T06:22:30.964Z,96450.84
2023-03-20T06:24:58.414Z,96453.94
2023-03-20T06:27:27.151Z,96449.06
2023-03-20T06:29:56.061Z,96446.38
2023-03-20T06:32:23.741Z,96459.22
2023-03-20T06:34:51.279Z,96456.13
2023-03-20T06:37:19.972Z,96450.97
2023-03-20T06:39:47.447Z,96450.34
2023-03-20T06:42:16.251Z,96451.56
2023-03-20T06:44:43.864Z,96451.59
2023-03-20T06:47:12.666Z,96447.28
2023-03-20T06:49:40.136Z,96440.63
2023-03-20T06:52:08.943Z,96441.84
2023-03-20T06:54:36.518Z,96452.00
2023-03-20T06:57:03.989Z,96448.72
2023-03-20T06:59:31.449Z,96449.41
2023-03-20T07:01:59.186Z,96456.22
2023-03-20T07:04:28.013Z,96460.25
2023-03-20T07:06:56.027Z,96474.06
2023-03-20T07:09:23.562Z,96469.53
2023-03-20T07:11:51.168Z,96485.53
2023-03-20T07:14:18.644Z,96487.00
2023-03-20T07:16:46.221Z,96487.22
2023-03-20T07:19:14.073Z,96486.66
2023-03-20T07:21:43.231Z,96493.47
2023-03-20T07:24:10.714Z,96498.59
2023-03-20T07:26:38.567Z,96497.69
2023-03-20T07:29:06.079Z,96491.44
2023-03-20T07:31:33.642Z,96493.88
2023-03-20T07:34:01.173Z,96488.44
2023-03-20T07:36:28.646Z,96487.38
2023-03-20T07:38:57.491Z,96483.81
2023-03-20T07:41:24.930Z,96483.69
2023-03-20T07:43:52.422Z,96476.38
2023-03-20T07:46:19.896Z,96482.34
2023-03-20T07:48:47.552Z,96489.50
2023-03-20T07:51:15.034Z,96485.44
2023-03-20T07:53:42.487Z,96498.63
2023-03-20T07:56:11.638Z,96497.88
2023-03-20T07:58:39.114Z,96485.66
2023-03-20T08:01:06.820Z,96477.81
2023-03-20T08:03:34.390Z,96485.78
2023-03-20T08:06:04.119Z,96483.63
2023-03-20T08:08:31.849Z,96484.22
2023-03-20T08:10:59.476Z,96488.38
2023-03-20T08:13:28.359Z,96484.94
2023-03-20T08:15:55.824Z,96488.91
2023-03-20T08:18:23.387Z,96477.22
2023-03-20T08:20:51.350Z,96490.38
2023-03-20T08:23:20.731Z,96488.25
2023-03-20T08:25:49.532Z,96482.09
2023-03-20T08:28:17.069Z,96484.75
2023-03-20T08:30:45.957Z,96496.09
2023-03-20T08:33:14.552Z,96495.75
2023-03-20T08:35:43.108Z,96490.38
2023-03-20T08:38:13.190Z,96495.25
2023-03-20T08:40:41.590Z,96489.47
2023-03-20T08:43:09.307Z,96483.84
2023-03-20T08:45:37.248Z,96479.91
2023-03-20T08:48:06.518Z,96483.13
2023-03-20T08:50:34.064Z,96487.09
2023-03-20T08:53:01.566Z,96487.72
2023-03-20T08:55:29.276Z,96493.50
2023-03-20T08:57:57.395Z,96502.13
2023-03-20T09:00:25.671Z,96491.78
2023-03-20T09:02:53.196Z,96492.50
2023-03-20T09:05:22.072Z,96490.78
2023-03-20T09:07:49.545Z,96493.47
2023-03-20T09:10:17.298Z,96501.94
2023-03-20T09:12:44.785Z,96509.53
2023-03-20T09:15:12.673Z,96506.16
2023-03-20T09:17:40.258Z,96504.94
2023-03-20T09:20:08.924Z,96496.16
2023-03-20T09:22:41.050Z,96496.03
2023-03-20T09:25:09.600Z,96495.03
2023-03-20T09:27:37.095Z,96493.44
2023-03-20T09:30:05.877Z,96488.03
2023-03-20T09:32:34.676Z,96500.75
2023-03-20T09:35:02.397Z,96495.97
2023-03-20T09:37:30.595Z,96508.06
2023-03-20T09:39:59.386Z,96502.06
2023-03-20T09:42:35.854Z,96500.16
2023-03-20T09:45:09.895Z,96504.78
2023-03-20T09:47:47.187Z,96502.47
2023-03-20T09:50:26.665Z,96506.47
2023-03-20T09:53:00.361Z,96498.63
2023-03-20T09:55:35.133Z,96503.50
2023-03-20T09:58:08.382Z,96499.72
2023-03-20T10:00:37.268Z,96494.09
2023-03-20T10:03:07.173Z,96503.03
2023-03-20T10:05:38.792Z,96504.47
2023-03-20T10:08:08.752Z,96496.59
2023-03-20T10:10:47.349Z,96487.75
2023-03-20T10:13:44.823Z,96486.94
2023-03-20T10:16:20.696Z,96484.00
2023-03-20T10:18:57.175Z,96492.09
2023-03-20T10:21:33.472Z,96483.06
2023-03-20T10:24:04.164Z,96494.66
2023-03-20T10:26:35.913Z,96484.16
2023-03-20T10:29:08.427Z,96489.22
2023-03-20T10:31:44.393Z,96477.59
2023-03-20T10:34:27.171Z,96488.00
2023-03-20T10:37:06.256Z,96489.56
2023-03-20T10:39:50.244Z,96489.56
2023-03-20T10:42:22.771Z,96485.84
2023-03-20T10:44:56.535Z,96482.06
2023-03-20T10:47:27.804Z,96477.28
2023-03-20T10:49:59.286Z,96477.72
2023-03-20T10:52:30.116Z,96470.53
2023-03-20T10:55:01.239Z,96464.06
2023-03-20T10:57:32.478Z,96450.59
2023-03-20T11:00:00.780Z,96459.00
2023-03-20T11:02:30.891Z,96452.84
2023-03-20T11:05:01.504Z,96448.94
2023-03-20T11:07:33.685Z,96445.59
2023-03-20T11:10:14.007Z,96458.88
2023-03-20T11:12:44.926Z,96446.44
2023-03-20T11:15:21.487Z,96451.56
2023-03-20T11:17:56.021Z,96449.69
2023-03-20T11:20:25.150Z,96447.44
2023-03-20T11:22:59.750Z,96454.66
2023-03-20T11:25:31.958Z,96453.88
2023-03-20T11:28:20.854Z,96444.50
2023-03-20T11:31:03.970Z,96453.81
2023-03-20T11:33:34.905Z,96447.81
2023-03-20T11:36:02.490Z,96451.72
2023-03-20T11:38:31.868Z,96455.94
2023-03-20T11:40:59.331Z,96456.44
2023-03-20T11:43:28.909Z,96453.72
2023-03-20T11:46:00.533Z,96445.19
2023-03-20T11:48:38.885Z,96441.22
2023-03-20T11:51:09.341Z,96447.31
2023-03-20T11:53:40.284Z,96450.63
2023-03-20T11:56:11.802Z,96453.81
2023-03-20T11:58:55.962Z,96447.63
2023-03-20T12:01:24.098Z,96449.81
2023-03-20T12:03:55.486Z,96452.16
2023-03-20T12:06:27.069Z,96441.19
2023-03-20T12:09:01.225Z,96446.19
2023-03-20T12:11:41.288Z,96441.91
2023-03-20T12:14:20.842Z,96450.38
2023-03-20T12:16:53.002Z,96449.03
2023-03-20T12:19:26.983Z,96447.69
2023-03-20T12:22:03.554Z,96440.03
2023-03-20T12:24:37.902Z,96433.69
2023-03-20T12:27:20.891Z,96437.47
2023-03-20T12:29:53.366Z,96438.53
2023-03-20T12:32:26.645Z,96430.25
2023-03-20T12:34:58.767Z,96429.91
2023-03-20T12:37:26.923Z,96432.53
2023-03-20T12:39:56.944Z,96425.25
2023-03-20T12:42:37.638Z,96420.63
2023-03-20T12:45:11.597Z,96418.72
2023-03-20T12:48:11.949Z,96424.38
2023-03-20T12:50:42.095Z,96423.47
2023-03-20T12:53:31.945Z,96417.00
2023-03-20T12:56:12.140Z,96423.41
2023-03-20T12:58:44.922Z,96425.13
2023-03-20T13:01:20.514Z,96430.59
2023-03-20T13:04:16.027Z,96415.72
2023-03-20T13:06:52.414Z,96420.69
2023-03-20T13:09:57.085Z,96413.63
2023-03-20T13:12:37.221Z,96406.84
2023-03-20T13:15:16.208Z,96415.22
2023-03-20T13:17:51.206Z,96410.81
2023-03-20T13:20:23.112Z,96406.31
2023-03-20T13:23:01.399Z,96401.97
2023-03-20T13:25:45.635Z,96401.50
2023-03-20T13:28:22.562Z,96397.75
2023-03-20T13:30:56.257Z,96392.22
2023-03-20T13:33:41.756Z,96390.28
2023-03-20T13:36:24.250Z,96397.47
2023-03-20T13:38:58.697Z,96398.88
2023-03-20T13:41:27.980Z,96400.31
2023-03-20T13:44:00.996Z,96393.88
2023-03-20T13:46:34.240Z,96397.41
2023-03-20T13:49:08.835Z,96382.66
2023-03-20T13:51:43.523Z,96387.47
2023-03-20T13:54:20.814Z,96397.53
2023-03-20T13:56:54.587Z,96394.59
2023-03-20T13:59:47.573Z,96393.97
2023-03-20T14:02:28.970Z,96393.59
2023-03-20T14:05:04.069Z,96396.50
2023-03-20T14:07:33.587Z,96386.66
2023-03-20T14:10:36.017Z,96393.66
2023-03-20T14:13:07.715Z,96384.34
2023-03-20T14:15:37.817Z,96389.06
2023-03-20T14:18:08.372Z,96387.97
2023-03-20T14:20:40.348Z,96391.25
2023-03-20T14:23:17.300Z,96385.09
2023-03-20T14:25:45.625Z,96390.41
2023-03-20T14:28:28.334Z,96382.50
2023-03-20T14:31:20.402Z,96381.59
2023-03-20T14:33:58.761Z,96385.09
2023-03-20T14:36:30.872Z,96390.09
2023-03-20T14:39:06.661Z,96381.28
2023-03-20T14:41:42.542Z,96382.78
2023-03-20T14:44:25.146Z,96384.19
2023-03-20T14:46:57.404Z,96379.22
2023-03-20T14:49:35.888Z,96384.19
2023-03-20T14:52:21.054Z,96369.84
2023-03-20T14:54:53.248Z,96378.09
2023-03-20T14:57:35.766Z,96372.13
2023-03-20T15:00:19.076Z,96371.97
2023-03-20T15:02:49.671Z,96363.00
2023-03-20T15:05:29.046Z,96361.91
2023-03-20T15:08:04.022Z,96359.69
2023-03-20T15:10:31.715Z,96361.25
2023-03-20T15:12:59.378Z,96354.81
2023-03-20T15:15:29.160Z,96358.84
2023-03-20T15:17:56.645Z,96354.97
2023-03-20T15:20:26.520Z,96355.88
2023-03-20T15:22:57.889Z,96350.09
2023-03-20T15:25:31.929Z,96354.06
2023-03-20T15:27:59.882Z,96361.53
2023-03-20T15:30:27.970Z,96356.75
2023-03-20T15:32:56.300Z,96354.34
2023-03-20T15:35:27.403Z,96348.09
2023-03-20T15:37:58.033Z,96344.31
2023-03-20T15:40:34.565Z,96343.31
2023-03-20T15:43:14.172Z,96343.06
2023-03-20T15:45:43.865Z,96346.22
2023-03-20T15:48:15.312Z,96341.72
2023-03-20T15:50:46.160Z,96338.84
2023-03-20T15:53:19.104Z,96342.16
2023-03-20T15:55:51.699Z,96351.34
2023-03-20T15:58:20.038Z,96348.19
2023-03-20T16:00:50.228Z,96349.06
2023-03-20T16:03:20.504Z,96349.66
2023-03-20T16:05:50.133Z,96354.47
2023-03-20T16:08:24.021Z,96355.75
2023-03-20T16:10:57.255Z,96353.53
2023-03-20T16:13:26.102Z,96354.91
2023-03-20T16:15:54.561Z,96355.09
2023-03-20T16:18:22.751Z,96355.47
2023-03-20T16:20:54.696Z,96358.69
2023-03-20T16:23:34.387Z,96351.59
2023-03-20T16:26:05.800Z,96356.84
2023-03-20T16:28:37.218Z,96353.53
2023-03-20T16:31:09.682Z,96355.19
2023-03-20T16:33:39.969Z,96352.28
2023-03-20T16:36:08.298Z,96354.09
2023-03-20T16:38:38.121Z,96351.28
2023-03-20T16:41:23.254Z,96364.50
2023-03-20T16:43:51.598Z,96354.09
2023-03-20T16:46:23.038Z,96357.88
2023-03-20T16:48:53.294Z,96362.09
2023-03-20T16:51:24.249Z,96364.19
2023-03-20T16:53:56.276Z,96361.63
2023-03-20T16:56:29.443Z,96371.09
2023-03-20T16:58:57.285Z,96373.41
2023-03-20T17:01:27.805Z,96375.44
2023-03-20T17:03:57.339Z,96375.31
2023-03-20T17:06:38.266Z,96379.50
2023-03-20T17:09:28.074Z,96382.03
2023-03-20T17:12:03.600Z,96383.44
2023-03-20T17:14:31.187Z,96382.44
2023-03-20T17:17:00.173Z,96381.28
2023-03-20T17:19:27.775Z,96383.31
2023-03-20T17:21:55.466Z,96384.22
2023-03-20T17:24:23.033Z,96387.22
2023-03-20T17:26:54.238Z,96391.50
2023-03-20T17:29:23.068Z,96386.13
2023-03-20T17:31:50.727Z,96388.28
2023-03-20T17:34:18.229Z,96384.78
2023-03-20T17:36:46.069Z,96388.94
2023-03-20T17:39:19.181Z,96388.09
2023-03-20T17:41:47.169Z,96391.63
2023-03-20T17:44:14.689Z,96391.28
2023-03-20T17:46:57.147Z,96386.97
2023-03-20T17:49:27.141Z,96399.44
2023-03-20T17:51:55.542Z,96402.41
2023-03-20T17:54:23.011Z,96395.44
2023-03-20T17:56:50.613Z,96394.09
2023-03-20T17:59:18.091Z,96395.56
2023-03-20T18:01:46.971Z,96408.59
2023-03-20T18:04:14.459Z,96407.25
2023-03-20T18:06:41.927Z,96399.94
2023-03-20T18:09:14.588Z,96407.63
2023-03-20T18:11:42.090Z,96404.00
2023-03-20T18:14:12.121Z,96411.78
2023-03-20T18:16:39.625Z,96413.72
2023-03-20T18:19:20.278Z,96415.53
2023-03-20T18:21:47.746Z,96420.63
2023-03-20T18:24:15.256Z,96422.69
2023-03-20T18:26:44.105Z,96413.22
2023-03-20T18:29:12.570Z,96420.16
2023-03-20T18:31:42.407Z,96414.97
2023-03-20T18:34:12.546Z,96417.84
2023-03-20T18:36:40.245Z,96416.28
2023-03-20T18:39:08.216Z,96417.66
2023-03-20T18:41:35.832Z,96414.22
2023-03-20T18:44:03.258Z,96418.50
2023-03-20T18:46:30.990Z,96415.13
2023-03-20T18:48:58.918Z,96416.53
2023-03-20T18:51:27.731Z,96421.75
2023-03-20T18:53:55.276Z,96424.69
2023-03-20T18:56:25.319Z,96422.53
2023-03-20T18:58:53.892Z,96422.03
2023-03-20T19:01:21.794Z,96419.34
2023-03-20T19:03:49.805Z,96422.28
2023-03-20T19:06:19.127Z,96420.41
2023-03-20T19:08:49.604Z,96425.72
2023-03-20T19:11:21.006Z,96423.91
2023-03-20T19:13:51.048Z,96422.97
2023-03-20T19:16:24.400Z,96425.16
2023-03-20T19:18:53.037Z,96425.38
2023-03-20T19:21:25.808Z,96423.03
2023-03-20T19:23:55.387Z,96418.81
2023-03-20T19:26:24.455Z,96427.50
2023-03-20T19:28:52.915Z,96426.09
2023-03-20T19:31:21.157Z,96421.50
2023-03-20T19:33:49.130Z,96425.31
2023-03-20T19:36:24.204Z,96423.59
2023-03-20T19:38:51.953Z,96419.50
2023-03-20T19:41:20.955Z,96425.97
2023-03-20T19:43:52.928Z,96419.56
2023-03-20T19:46:38.642Z,96427.44
2023-03-20T19:49:07.076Z,96423.22
2023-03-20T19:51:34.706Z,96421.13
2023-03-20T19:54:02.157Z,96422.38
2023-03-20T19:56:31.161Z,96428.28
2023-03-20T19:58:58.633Z,96427.88
2023-03-20T20:01:26.329Z,96421.75
2023-03-20T20:03:54.986Z,96421.09
2023-03-20T20:06:29.506Z,96421.03
2023-03-20T20:08:58.673Z,96422.19
2023-03-20T20:11:26.169Z,96419.84
2023-03-20T20:14:06.739Z,96420.81
2023-03-20T20:16:35.792Z,96419.47
2023-03-20T20:19:03.514Z,96422.09
2023-03-20T20:24:18.487Z,96425.03
2023-03-20T20:26:54.755Z,96422.66
2023-03-20T20:29:28.629Z,96427.13
2023-03-20T20:31:56.194Z,96422.13
2023-03-20T20:39:59.026Z,96418.94
2023-03-20T20:42:26.641Z,96417.66
2023-03-20T20:44:55.441Z,96415.72
2023-03-20T20:47:22.914Z,96412.75
2023-03-20T20:49:50.460Z,96412.13
2023-03-20T20:52:17.934Z,96415.63
2023-03-20T20:54:45.571Z,96406.19
2023-03-20T20:57:14.237Z,96409.53
2023-03-20T20:59:41.857Z,96407.06
2023-03-20T21:02:12.012Z,96417.03
2023-03-20T21:04:40.468Z,96420.53
2023-03-20T21:07:10.816Z,96414.66
2023-03-20T21:09:38.793Z,96419.84
2023-03-20T21:12:08.253Z,96424.81
2023-03-20T21:14:36.094Z,96417.19
2023-03-20T21:17:03.760Z,96416.84
2023-03-20T21:19:35.479Z,96423.19
2023-03-20T21:22:02.956Z,96416.84
2023-03-20T21:24:34.028Z,96411.88
2023-03-20T21:27:02.767Z,96413.34
2023-03-20T21:29:30.633Z,96417.69
2023-03-20T21:31:58.178Z,96420.50
2023-03-20T21:34:25.950Z,96422.81
2023-03-20T21:36:54.816Z,96417.78
2023-03-20T21:39:22.658Z,96419.84
2023-03-20T21:41:50.257Z,96409.78
2023-03-20T21:44:24.535Z,96415.03
2023-03-20T22:01:45.972Z,96414.94
2023-03-20T22:10:18.351Z,96414.38
2023-03-20T22:16:04.288Z,96420.03
2023-03-20T22:18:42.162Z,96415.47
2023-03-20T22:21:41.822Z,96418.44
2023-03-20T22:27:06.294Z,96416.19
2023-03-20T22:32:44.108Z,96403.75
2023-03-20T22:41:09.804Z,96414.34
2023-03-20T22:46:10.076Z,96408.47
2023-03-20T22:48:41.928Z,96404.47
2023-03-20T22:51:09.461Z,96404.22
2023-03-20T22:53:37.072Z,96408.06
2023-03-20T22:56:04.856Z,96408.56
2023-03-20T22:58:33.954Z,96403.19
2023-03-20T23:01:01.647Z,96391.72
2023-03-20T23:03:40.954Z,96398.84
2023-03-20T23:06:11.309Z,96388.22
2023-03-20T23:08:50.395Z,96400.63
2023-03-20T23:11:22.302Z,96391.13
2023-03-20T23:13:51.463Z,96387.75
2023-03-20T23:16:19.177Z,96393.22
2023-03-20T23:18:46.752Z,96385.34
2023-03-20T23:21:14.284Z,96397.53
2023-03-20T23:23:41.786Z,96394.09
2023-03-20T23:26:11.539Z,96399.63
2023-03-20T23:28:40.107Z,96392.03
2023-03-20T23:31:11.894Z,96392.09
2023-03-20T23:33:40.146Z,96396.25
2023-03-20T23:36:24.773Z,96387.66
2023-03-20T23:38:56.308Z,96373.44
2023-03-20T23:41:49.335Z,96377.78
2023-03-20T23:44:11.340Z,96382.53
2023-03-20T23:46:40.177Z,96380.00
2023-03-20T23:49:07.732Z,96381.84
2023-03-20T23:51:35.282Z,96381.63
2023-03-20T23:54:02.762Z,96379.09
2023-03-20T23:56:30.230Z,96382.06
2023-03-20T23:59:03.251Z,96372.91
